Time;durP1;ratioP1;P1;durP2;ratioP2;P2;SDS_P1;SDS_P2;PMS_P1;PMS_P2;Temp;Humidity;BMP_temperature;BMP_pressure;BME280_temperature;BME280_humidity;BME280_pressure;Samples;Min_cycle;Max_cycle;Signal;HPM_P1;HPM_P2
2024/03/04 00:00:47;;;;;;;9.10;5.68;;;9.80;80.30;;;;;;5070618;28;21574;-66
2024/03/04 00:03:13;;;;;;;8.32;5.18;;;9.80;80.30;;;;;;5068493;28;20036;-67
2024/03/04 00:05:39;;;;;;;12.10;6.30;;;9.90;80.30;;;;;;5069514;28;20033;-69
2024/03/04 00:08:04;;;;;;;12.15;7.05;;;9.90;80.20;;;;;;5071004;28;20427;-67
2024/03/04 00:10:30;;;;;;;14.25;7.85;;;9.90;80.30;;;;;;5070767;28;20132;-67
2024/03/04 00:12:56;;;;;;;13.68;7.25;;;9.90;80.50;;;;;;5065391;28;20028;-67
2024/03/04 00:15:23;;;;;;;11.20;6.80;;;9.90;80.60;;;;;;5068150;28;20020;-65
2024/03/04 00:17:50;;;;;;;11.75;6.78;;;9.90;80.70;;;;;;5072881;28;20058;-65
2024/03/04 00:20:16;;;;;;;15.32;8.68;;;9.90;80.70;;;;;;5067151;28;20032;-67
2024/03/04 00:22:45;;;;;;;16.00;8.70;;;9.90;80.80;;;;;;5068324;28;20472;-66
2024/03/04 00:25:15;;;;;;;18.35;9.40;;;9.80;81.10;;;;;;5068940;28;20020;-65
2024/03/04 00:27:44;;;;;;;14.57;7.93;;;9.80;81.20;;;;;;5068916;28;20025;-67
2024/03/04 00:30:11;;;;;;;18.42;9.77;;;9.80;81.20;;;;;;5069476;28;20024;-65
2024/03/04 00:32:37;;;;;;;21.42;11.50;;;9.80;81.30;;;;;;5067936;28;20056;-67
2024/03/04 00:35:05;;;;;;;16.95;9.52;;;9.80;81.60;;;;;;5069928;28;20119;-66
2024/03/04 00:37:31;;;;;;;18.52;10.10;;;9.80;81.60;;;;;;5072078;28;20497;-65
2024/03/04 00:39:56;;;;;;;15.20;8.20;;;9.80;81.60;;;;;;5070374;28;20016;-66
2024/03/04 00:42:25;;;;;;;14.57;8.10;;;9.80;81.70;;;;;;5071281;28;20035;-66
2024/03/04 00:44:55;;;;;;;15.27;8.32;;;9.90;81.60;;;;;;5071339;28;20086;-66
2024/03/04 00:47:20;;;;;;;18.35;9.55;;;9.90;81.60;;;;;;5066006;28;20086;-65
2024/03/04 00:49:46;;;;;;;17.95;9.27;;;9.90;81.90;;;;;;5066498;28;20029;-67
2024/03/04 00:52:12;;;;;;;17.20;9.60;;;9.90;81.90;;;;;;5067875;28;20029;-65
2024/03/04 00:54:38;;;;;;;19.50;10.70;;;9.80;82.00;;;;;;5065187;28;20047;-67
2024/03/04 00:57:04;;;;;;;19.38;10.93;;;9.80;82.10;;;;;;5070639;28;20047;-65
2024/03/04 00:59:30;;;;;;;22.88;12.27;;;9.80;82.60;;;;;;5069096;28;20119;-67
2024/03/04 01:01:57;;;;;;;20.40;10.35;;;9.70;82.80;;;;;;5073420;28;20103;-66
2024/03/04 01:04:22;;;;;;;13.27;7.85;;;9.70;82.90;;;;;;5071966;28;20481;-66
2024/03/04 01:06:52;;;;;;;14.63;8.52;;;9.80;82.90;;;;;;5073269;28;20017;-65
2024/03/04 01:09:18;;;;;;;17.40;9.70;;;9.80;82.80;;;;;;5073066;28;20111;-66
2024/03/04 01:11:43;;;;;;;17.27;9.48;;;9.80;82.90;;;;;;5067111;28;20024;-65
2024/03/04 01:14:09;;;;;;;14.90;8.88;;;9.80;82.90;;;;;;5069006;28;20028;-66
2024/03/04 01:16:34;;;;;;;18.08;9.98;;;9.80;83.00;;;;;;5069623;28;20025;-66
2024/03/04 01:19:00;;;;;;;15.88;8.82;;;9.80;83.10;;;;;;5070852;28;20043;-65
2024/03/04 01:21:25;;;;;;;15.80;9.32;;;9.80;83.10;;;;;;5069054;28;20071;-67
2024/03/04 01:23:52;;;;;;;15.98;9.50;;;9.80;83.00;;;;;;5068148;28;20081;-65
2024/03/04 01:26:18;;;;;;;13.63;8.30;;;9.80;83.00;;;;;;5065379;28;20062;-66
2024/03/04 01:28:47;;;;;;;14.80;8.10;;;9.80;83.00;;;;;;5069191;28;20024;-67
2024/03/04 01:31:14;;;;;;;13.30;7.60;;;9.80;83.00;;;;;;5064395;28;20027;-66
2024/03/04 01:33:41;;;;;;;12.77;7.63;;;9.90;83.00;;;;;;5067225;28;20029;-66
2024/03/04 01:36:07;;;;;;;13.57;7.13;;;9.90;83.10;;;;;;5066580;28;20040;-65
2024/03/04 01:38:33;;;;;;;11.82;7.07;;;9.80;83.10;;;;;;5067962;28;20020;-66
2024/03/04 01:40:58;;;;;;;11.02;6.60;;;9.80;83.30;;;;;;5068371;28;20058;-67
2024/03/04 01:43:24;;;;;;;11.05;6.93;;;9.80;83.30;;;;;;5068451;28;20041;-66
2024/03/04 01:45:50;;;;;;;13.93;7.15;;;9.80;83.50;;;;;;5067313;28;20050;-66
2024/03/04 01:48:16;;;;;;;13.10;7.70;;;9.80;83.40;;;;;;5068674;28;20420;-65
2024/03/04 01:50:46;;;;;;;13.52;7.38;;;9.80;83.50;;;;;;5069974;28;20516;-65
2024/03/04 01:53:13;;;;;;;10.23;6.45;;;9.70;83.70;;;;;;5069009;28;20059;-67
2024/03/04 01:55:49;;;;;;;12.18;6.63;;;9.70;83.70;;;;;;5068951;28;20486;-65
2024/03/04 01:58:17;;;;;;;14.23;8.52;;;9.80;83.70;;;;;;5068972;28;20024;-66
2024/03/04 02:00:45;;;;;;;23.60;12.77;;;9.70;83.80;;;;;;5065726;28;20487;-65
2024/03/04 02:03:14;;;;;;;20.98;11.32;;;9.70;84.00;;;;;;5066589;28;20031;-65
2024/03/04 02:05:40;;;;;;;17.77;10.18;;;9.60;84.20;;;;;;5067383;28;20052;-66
2024/03/04 02:08:07;;;;;;;15.00;8.15;;;9.60;84.30;;;;;;5066886;28;20082;-66
2024/03/04 02:10:33;;;;;;;21.80;11.27;;;9.70;84.30;;;;;;5067234;28;20669;-64
2024/03/04 02:12:59;;;;;;;21.25;11.40;;;9.70;84.30;;;;;;5065787;28;20032;-64
2024/03/04 02:15:24;;;;;;;28.65;13.52;;;9.70;84.40;;;;;;5067648;28;20546;-66
2024/03/04 02:17:50;;;;;;;19.25;11.13;;;9.60;84.40;;;;;;5066548;28;20037;-66
2024/03/04 02:20:17;;;;;;;20.85;11.05;;;9.60;84.50;;;;;;5071808;28;20024;-67
2024/03/04 02:22:42;;;;;;;18.63;10.05;;;9.60;84.50;;;;;;5066453;28;20067;-67
2024/03/04 02:25:11;;;;;;;18.73;10.23;;;9.70;84.50;;;;;;5068761;28;20045;-67
2024/03/04 02:27:42;;;;;;;17.10;9.77;;;9.70;84.50;;;;;;5066554;28;20024;-66
2024/03/04 02:30:08;;;;;;;18.90;10.95;;;9.70;84.50;;;;;;5066752;28;20462;-66
2024/03/04 02:32:35;;;;;;;22.10;11.95;;;9.70;84.50;;;;;;5064177;28;20043;-68
2024/03/04 02:35:07;;;;;;;19.30;10.30;;;9.70;84.60;;;;;;5069388;28;20067;-66
2024/03/04 02:37:35;;;;;;;19.70;11.25;;;9.70;84.60;;;;;;5069098;28;20406;-67
2024/03/04 02:40:04;;;;;;;16.63;9.45;;;9.70;84.60;;;;;;5070691;28;20028;-66
2024/03/04 02:42:31;;;;;;;20.77;11.20;;;9.70;84.70;;;;;;5069174;28;20449;-68
2024/03/04 02:44:57;;;;;;;14.07;8.40;;;9.70;84.80;;;;;;5070615;28;20032;-66
2024/03/04 02:47:22;;;;;;;14.93;7.85;;;9.70;84.90;;;;;;5075273;28;20038;-67
2024/03/04 02:49:48;;;;;;;11.63;7.15;;;9.70;84.80;;;;;;5071493;28;20075;-67
2024/03/04 02:52:14;;;;;;;15.18;8.70;;;9.70;84.80;;;;;;5071199;28;20406;-67
2024/03/04 02:54:39;;;;;;;13.45;7.97;;;9.60;84.90;;;;;;5069525;28;20113;-66
2024/03/04 02:57:05;;;;;;;12.73;7.07;;;9.60;85.00;;;;;;5071280;28;20490;-65
2024/03/04 02:59:31;;;;;;;10.52;5.68;;;9.60;85.10;;;;;;5073955;28;20033;-65
2024/03/04 03:01:56;;;;;;;10.02;4.95;;;9.60;85.20;;;;;;5071306;28;20025;-68
2024/03/04 03:04:24;;;;;;;8.50;4.93;;;9.60;85.30;;;;;;5068318;28;20048;-66
2024/03/04 03:06:49;;;;;;;7.55;4.72;;;9.60;85.30;;;;;;5073438;28;20548;-64
2024/03/04 03:09:15;;;;;;;9.63;5.30;;;9.60;85.30;;;;;;5070474;28;20123;-66
2024/03/04 03:11:41;;;;;;;10.65;5.40;;;9.60;85.20;;;;;;5069595;28;20460;-68
2024/03/04 03:14:07;;;;;;;7.32;4.38;;;9.50;85.40;;;;;;5071248;28;20024;-65
2024/03/04 03:16:33;;;;;;;6.43;4.03;;;9.50;85.50;;;;;;5070516;28;20979;-66
2024/03/04 03:18:59;;;;;;;7.30;3.75;;;9.50;85.50;;;;;;5069200;28;20085;-64
2024/03/04 03:21:26;;;;;;;9.68;4.65;;;9.60;85.40;;;;;;5071451;28;20102;-65
2024/03/04 03:23:52;;;;;;;9.07;4.03;;;9.60;85.50;;;;;;5070849;28;20048;-64
2024/03/04 03:26:18;;;;;;;9.13;4.45;;;9.60;85.50;;;;;;5075114;28;20028;-66
2024/03/04 03:28:44;;;;;;;5.75;3.70;;;9.60;85.50;;;;;;5064080;28;20933;-68
2024/03/04 03:31:11;;;;;;;6.35;4.13;;;9.60;85.50;;;;;;5070870;28;20037;-66
2024/03/04 03:33:37;;;;;;;7.38;3.53;;;9.70;85.40;;;;;;5069520;28;20025;-64
2024/03/04 03:36:05;;;;;;;6.20;3.53;;;9.60;85.30;;;;;;5069708;28;20032;-65
2024/03/04 03:38:32;;;;;;;7.38;3.47;;;9.60;85.40;;;;;;5065638;28;20087;-67
2024/03/04 03:40:59;;;;;;;6.65;4.18;;;9.60;85.30;;;;;;5070602;28;20025;-68
2024/03/04 03:43:24;;;;;;;7.78;3.80;;;9.60;85.40;;;;;;5069976;28;20020;-66
2024/03/04 03:45:51;;;;;;;8.02;3.30;;;9.60;85.50;;;;;;5070856;28;20051;-66
2024/03/04 03:48:20;;;;;;;4.20;2.70;;;9.60;85.60;;;;;;5073081;28;20074;-65
2024/03/04 03:50:46;;;;;;;6.00;2.72;;;9.60;85.50;;;;;;5070303;28;20028;-67
2024/03/04 03:53:11;;;;;;;5.28;2.92;;;9.60;85.40;;;;;;5069932;28;20028;-66
2024/03/04 03:55:37;;;;;;;4.30;2.50;;;9.70;85.30;;;;;;5066352;28;20082;-66
2024/03/04 03:58:03;;;;;;;6.20;2.90;;;9.60;85.30;;;;;;5072071;28;20107;-66
2024/03/04 04:00:30;;;;;;;6.43;3.28;;;9.60;85.40;;;;;;5073137;28;20120;-66
2024/03/04 04:02:56;;;;;;;4.40;2.70;;;9.60;85.50;;;;;;5071082;28;20032;-65
2024/03/04 04:05:22;;;;;;;5.07;2.90;;;9.50;85.60;;;;;;5065036;28;20016;-66
2024/03/04 04:07:47;;;;;;;7.18;2.67;;;9.50;85.60;;;;;;5066961;28;20671;-67
2024/03/04 04:10:14;;;;;;;5.28;2.40;;;9.50;85.50;;;;;;5071825;28;20029;-66
2024/03/04 04:12:40;;;;;;;5.55;2.47;;;9.60;85.50;;;;;;5071454;28;20025;-67
2024/03/04 04:15:06;;;;;;;5.93;2.60;;;9.60;85.50;;;;;;5068793;28;20055;-66
2024/03/04 04:17:32;;;;;;;5.30;3.00;;;9.60;85.40;;;;;;5070040;28;20028;-67
2024/03/04 04:19:57;;;;;;;6.60;2.78;;;9.60;85.40;;;;;;5068365;28;20024;-65
2024/03/04 04:22:23;;;;;;;6.20;3.22;;;9.50;85.40;;;;;;5065482;28;20020;-66
2024/03/04 04:24:49;;;;;;;6.13;3.08;;;9.50;85.50;;;;;;5071086;28;20017;-66
2024/03/04 04:27:14;;;;;;;4.68;2.70;;;9.40;85.60;;;;;;5071251;28;20042;-66
2024/03/04 04:29:40;;;;;;;5.07;2.65;;;9.40;85.80;;;;;;5071433;28;20033;-66
2024/03/04 04:32:06;;;;;;;6.47;3.55;;;9.40;85.80;;;;;;5070629;28;20024;-65
2024/03/04 04:34:32;;;;;;;5.30;3.28;;;9.40;85.90;;;;;;5071217;28;20039;-65
2024/03/04 04:36:58;;;;;;;7.13;3.55;;;9.30;86.00;;;;;;5068856;28;20024;-65
2024/03/04 04:39:24;;;;;;;6.45;3.95;;;9.30;86.20;;;;;;5069319;28;20740;-64
2024/03/04 04:41:50;;;;;;;7.22;3.50;;;9.30;86.10;;;;;;5071896;28;20090;-65
2024/03/04 04:44:16;;;;;;;6.30;3.03;;;9.30;86.20;;;;;;5067673;28;20016;-65
2024/03/04 04:46:41;;;;;;;5.47;3.30;;;9.30;86.20;;;;;;5069352;28;20502;-65
2024/03/04 04:49:08;;;;;;;5.30;2.72;;;9.30;86.20;;;;;;5073320;28;20508;-67
2024/03/04 04:51:33;;;;;;;6.03;3.00;;;9.30;86.20;;;;;;5070429;28;20077;-66
2024/03/04 04:53:59;;;;;;;5.18;2.75;;;9.30;86.20;;;;;;5076323;28;20423;-65
2024/03/04 04:56:25;;;;;;;6.22;2.95;;;9.30;86.20;;;;;;5071030;28;20020;-66
2024/03/04 04:58:50;;;;;;;5.25;3.25;;;9.30;86.20;;;;;;5071966;28;20032;-65
2024/03/04 05:01:28;;;;;;;4.05;2.60;;;9.30;86.30;;;;;;5074208;28;20033;-67
2024/03/04 05:03:55;;;;;;;4.20;2.55;;;9.30;86.40;;;;;;5069635;28;20077;-66
2024/03/04 05:06:21;;;;;;;4.18;2.53;;;9.30;86.40;;;;;;5067157;28;20020;-69
2024/03/04 05:08:48;;;;;;;3.88;2.30;;;9.30;86.20;;;;;;5070434;28;20048;-66
2024/03/04 05:11:13;;;;;;;5.30;3.05;;;9.30;86.20;;;;;;5068909;28;20050;-67
2024/03/04 05:13:39;;;;;;;3.83;2.60;;;9.30;86.10;;;;;;5070553;28;20044;-67
2024/03/04 05:16:05;;;;;;;3.78;2.45;;;9.30;86.20;;;;;;5071489;28;20028;-67
2024/03/04 05:18:31;;;;;;;6.78;2.63;;;9.40;86.20;;;;;;5068155;28;20054;-67
2024/03/04 05:20:57;;;;;;;4.60;2.72;;;9.40;86.10;;;;;;5068722;28;20024;-67
2024/03/04 05:23:23;;;;;;;5.38;2.78;;;9.40;86.60;;;;;;5073715;28;20096;-67
2024/03/04 05:25:49;;;;;;;6.00;3.00;;;9.40;86.10;;;;;;5070940;28;20154;-67
2024/03/04 05:28:14;;;;;;;5.03;2.25;;;9.40;86.10;;;;;;5072289;28;20127;-66
2024/03/04 05:30:41;;;;;;;4.38;2.28;;;9.40;86.20;;;;;;5072019;28;20700;-66
2024/03/04 05:33:07;;;;;;;3.50;2.10;;;9.40;86.10;;;;;;5067502;28;20029;-66
2024/03/04 05:35:33;;;;;;;2.65;1.90;;;9.40;86.10;;;;;;5071823;28;20157;-67
2024/03/04 05:37:59;;;;;;;2.80;2.10;;;9.40;86.00;;;;;;5070247;28;20107;-67
2024/03/04 05:40:25;;;;;;;3.95;2.40;;;9.40;85.90;;;;;;5071155;28;20029;-67
2024/03/04 05:42:51;;;;;;;4.72;2.30;;;9.40;85.90;;;;;;5067328;28;20040;-66
2024/03/04 05:45:16;;;;;;;4.85;2.50;;;9.50;86.00;;;;;;5071195;28;20020;-67
2024/03/04 05:47:42;;;;;;;3.58;2.20;;;9.40;85.90;;;;;;5069443;28;20035;-67
2024/03/04 05:50:08;;;;;;;6.45;2.55;;;9.50;86.00;;;;;;5067398;28;20078;-67
2024/03/04 05:52:34;;;;;;;4.43;2.38;;;9.40;86.00;;;;;;5067611;28;20269;-67
2024/03/04 05:55:00;;;;;;;4.72;2.25;;;9.40;86.10;;;;;;5067603;28;20024;-67
2024/03/04 05:57:26;;;;;;;3.42;2.40;;;9.40;86.10;;;;;;5067350;28;20025;-67
2024/03/04 05:59:51;;;;;;;4.90;2.58;;;9.40;86.10;;;;;;5067480;28;20036;-66
2024/03/04 06:02:17;;;;;;;4.68;2.58;;;9.40;86.10;;;;;;5068194;28;20116;-67
2024/03/04 06:04:42;;;;;;;2.35;1.85;;;9.40;86.10;;;;;;5066027;28;20028;-69
2024/03/04 06:07:08;;;;;;;3.47;1.92;;;9.40;86.20;;;;;;5069108;28;20023;-67
2024/03/04 06:09:33;;;;;;;4.03;1.95;;;9.40;86.10;;;;;;5068096;28;20032;-66
2024/03/04 06:11:59;;;;;;;2.83;1.80;;;9.40;86.00;;;;;;5066765;28;20047;-66
2024/03/04 06:14:24;;;;;;;4.28;2.40;;;9.50;86.00;;;;;;5066460;28;20071;-67
2024/03/04 06:16:50;;;;;;;4.35;1.98;;;9.50;85.90;;;;;;5068127;28;20074;-68
2024/03/04 06:19:16;;;;;;;3.33;1.75;;;9.50;86.00;;;;;;5072941;28;20024;-66
2024/03/04 06:21:42;;;;;;;1.88;1.40;;;9.40;85.90;;;;;;5075147;28;20674;-66
2024/03/04 06:24:08;;;;;;;2.42;1.55;;;9.50;85.90;;;;;;5100542;28;20566;-67
2024/03/04 06:26:34;;;;;;;3.05;1.65;;;9.50;86.50;;;;;;5069365;28;20062;-67
2024/03/04 06:28:59;;;;;;;2.35;1.48;;;9.50;85.70;;;;;;5069516;28;20462;-66
2024/03/04 06:31:26;;;;;;;3.22;1.40;;;9.50;85.70;;;;;;5071568;28;20029;-66
2024/03/04 06:33:52;;;;;;;2.85;1.50;;;9.50;85.60;;;;;;5069897;28;20738;-68
2024/03/04 06:36:18;;;;;;;1.60;1.25;;;9.50;85.70;;;;;;5069864;28;20021;-67
2024/03/04 06:38:43;;;;;;;1.88;1.23;;;9.50;85.70;;;;;;5072916;28;20483;-68
2024/03/04 06:41:09;;;;;;;2.72;1.33;;;9.50;85.60;;;;;;5071953;28;20118;-67
2024/03/04 06:43:35;;;;;;;2.35;1.60;;;9.50;85.60;;;;;;5070320;28;20024;-65
2024/03/04 06:46:02;;;;;;;2.53;1.50;;;9.50;85.60;;;;;;5071985;28;20035;-68
2024/03/04 06:48:27;;;;;;;2.53;1.60;;;9.50;85.60;;;;;;5072075;28;20020;-66
2024/03/04 06:50:53;;;;;;;1.65;1.30;;;9.50;85.70;;;;;;5074811;28;20047;-69
2024/03/04 06:53:18;;;;;;;1.77;1.40;;;9.50;85.60;;;;;;5071765;28;20108;-65
2024/03/04 06:55:44;;;;;;;1.80;1.27;;;9.50;85.60;;;;;;5072669;28;20032;-66
2024/03/04 06:58:09;;;;;;;2.47;1.40;;;9.50;85.60;;;;;;5071230;28;20028;-65
2024/03/04 07:00:35;;;;;;;2.65;1.48;;;9.50;85.60;;;;;;5067745;28;20031;-68
2024/03/04 07:03:01;;;;;;;2.90;1.20;;;9.50;85.50;;;;;;5066590;28;20032;-70
2024/03/04 07:05:26;;;;;;;1.50;1.17;;;9.50;85.50;;;;;;5070802;28;20040;-66
2024/03/04 07:07:52;;;;;;;1.40;1.10;;;9.50;85.50;;;;;;5070633;28;20021;-66
2024/03/04 07:10:18;;;;;;;2.10;1.45;;;9.40;85.50;;;;;;5072446;28;20487;-67
2024/03/04 07:12:43;;;;;;;2.22;1.40;;;9.50;85.60;;;;;;5073073;28;20427;-67
2024/03/04 07:15:09;;;;;;;2.03;1.48;;;9.50;85.50;;;;;;5072803;28;20543;-67
2024/03/04 07:17:34;;;;;;;1.83;1.15;;;9.50;85.50;;;;;;5072608;28;20032;-65
2024/03/04 07:20:00;;;;;;;1.88;1.30;;;9.60;85.40;;;;;;5071499;28;20036;-66
2024/03/04 07:22:26;;;;;;;2.00;1.23;;;9.60;85.90;;;;;;5073637;28;20024;-67
2024/03/04 07:24:51;;;;;;;2.33;1.27;;;9.50;85.30;;;;;;5078526;28;20623;-66
2024/03/04 07:27:17;;;;;;;2.75;1.70;;;9.50;85.30;;;;;;5073602;28;20020;-66
2024/03/04 07:29:43;;;;;;;1.77;1.30;;;9.50;85.30;;;;;;5070828;28;20059;-67
2024/03/04 07:32:08;;;;;;;2.58;1.50;;;9.60;85.30;;;;;;5075403;28;20024;-66
2024/03/04 07:34:34;;;;;;;3.20;1.70;;;9.50;85.10;;;;;;5076669;28;20028;-67
2024/03/04 07:36:59;;;;;;;2.67;1.50;;;9.50;85.00;;;;;;5077334;28;20020;-66
2024/03/04 07:39:25;;;;;;;2.33;1.70;;;9.60;85.10;;;;;;5079143;28;20032;-67
2024/03/04 07:41:51;;;;;;;2.72;1.45;;;9.50;85.10;;;;;;5077714;28;20052;-67
2024/03/04 07:44:20;;;;;;;2.42;1.55;;;9.60;85.00;;;;;;5067347;28;20052;-66
2024/03/04 07:46:47;;;;;;;1.88;1.20;;;9.60;85.00;;;;;;5100242;28;20031;-69
2024/03/04 07:49:13;;;;;;;1.98;1.30;;;9.70;85.00;;;;;;5070027;28;20022;-66
2024/03/04 07:51:38;;;;;;;2.03;1.23;;;9.80;84.80;;;;;;5069926;28;20527;-67
2024/03/04 07:54:04;;;;;;;2.80;1.50;;;9.80;84.50;;;;;;5070668;28;20046;-68
2024/03/04 07:56:31;;;;;;;1.90;1.40;;;9.80;84.50;;;;;;5072727;28;20111;-68
2024/03/04 07:58:57;;;;;;;1.38;1.25;;;9.80;84.50;;;;;;5070620;28;20024;-67
2024/03/04 08:01:22;;;;;;;2.92;1.73;;;9.90;84.40;;;;;;5069318;28;20013;-67
2024/03/04 08:03:48;;;;;;;2.63;1.45;;;9.90;84.20;;;;;;5072300;28;20028;-68
2024/03/04 08:06:14;;;;;;;3.92;2.13;;;9.90;84.30;;;;;;5072144;28;20222;-67
2024/03/04 08:08:39;;;;;;;3.42;2.00;;;10.00;84.10;;;;;;5073866;28;20036;-66
2024/03/04 08:11:05;;;;;;;2.38;1.90;;;10.00;83.90;;;;;;5073476;28;20543;-66
2024/03/04 08:13:30;;;;;;;3.25;2.00;;;10.00;83.70;;;;;;5075258;28;20038;-66
2024/03/04 08:15:56;;;;;;;3.70;1.67;;;10.10;83.80;;;;;;5078134;28;20032;-66
2024/03/04 08:18:22;;;;;;;3.45;1.70;;;10.20;83.50;;;;;;5074310;28;20039;-66
2024/03/04 08:20:48;;;;;;;2.53;1.60;;;10.30;83.30;;;;;;5074482;28;20024;-66
2024/03/04 08:23:15;;;;;;;2.47;1.80;;;10.30;83.10;;;;;;5074140;28;20099;-67
2024/03/04 08:25:40;;;;;;;4.05;1.95;;;10.30;82.90;;;;;;5073716;28;20012;-65
2024/03/04 08:28:06;;;;;;;2.60;1.80;;;10.30;82.90;;;;;;5072893;28;20036;-66
2024/03/04 08:30:31;;;;;;;2.80;1.50;;;10.40;83.00;;;;;;5072561;28;20024;-66
2024/03/04 08:32:57;;;;;;;2.80;1.80;;;10.40;82.80;;;;;;5072498;28;20425;-67
2024/03/04 08:35:22;;;;;;;4.40;1.90;;;10.40;82.70;;;;;;5063575;28;20036;-68
2024/03/04 08:37:48;;;;;;;4.70;2.17;;;10.40;82.80;;;;;;5065535;28;20029;-68
2024/03/04 08:40:13;;;;;;;3.95;1.80;;;10.50;82.70;;;;;;5067464;28;20061;-68
2024/03/04 08:42:41;;;;;;;2.97;1.88;;;10.40;82.50;;;;;;5067175;28;20402;-67
2024/03/04 08:45:07;;;;;;;3.17;1.90;;;10.40;82.60;;;;;;5065012;28;21452;-66
2024/03/04 08:47:32;;;;;;;3.47;1.80;;;10.40;82.60;;;;;;5067692;28;20032;-67
2024/03/04 08:49:58;;;;;;;3.15;1.85;;;10.40;82.60;;;;;;5085118;28;20564;-66
2024/03/04 08:52:24;;;;;;;3.30;2.03;;;10.50;82.50;;;;;;5068648;28;20036;-67
2024/03/04 08:54:50;;;;;;;2.83;1.80;;;10.60;82.30;;;;;;5069210;28;20056;-66
2024/03/04 08:57:15;;;;;;;3.60;1.70;;;10.50;82.20;;;;;;5070168;28;20434;-67
2024/03/04 08:59:41;;;;;;;3.78;1.70;;;10.60;82.20;;;;;;5068005;28;20115;-66
2024/03/04 09:02:07;;;;;;;2.83;1.80;;;10.70;82.00;;;;;;5070489;28;20031;-67
2024/03/04 09:04:33;;;;;;;2.67;1.52;;;10.60;81.80;;;;;;5062569;28;20024;-66
2024/03/04 09:06:59;;;;;;;3.50;1.67;;;10.60;81.80;;;;;;5063545;28;20016;-65
2024/03/04 09:09:25;;;;;;;2.30;1.40;;;10.70;81.80;;;;;;5066354;28;20536;-65
2024/03/04 09:11:52;;;;;;;1.92;1.38;;;10.70;81.70;;;;;;5071400;28;20034;-66
2024/03/04 09:14:21;;;;;;;2.47;1.40;;;10.90;81.80;;;;;;5076238;28;20501;-65
2024/03/04 09:16:47;;;;;;;2.97;1.73;;;11.00;81.50;;;;;;5067856;28;20098;-66
2024/03/04 09:19:12;;;;;;;3.05;1.60;;;11.10;81.10;;;;;;5066802;28;20028;-65
2024/03/04 09:21:38;;;;;;;3.15;1.70;;;11.00;81.00;;;;;;5068024;28;20028;-66
2024/03/04 09:24:03;;;;;;;3.72;1.55;;;11.00;81.20;;;;;;5061368;28;20661;-65
2024/03/04 09:26:29;;;;;;;2.38;1.42;;;11.10;81.20;;;;;;5063318;28;20095;-65
2024/03/04 09:28:55;;;;;;;1.88;1.20;;;11.20;81.10;;;;;;5062000;28;20024;-68
2024/03/04 09:31:22;;;;;;;1.38;1.10;;;11.20;80.80;;;;;;5065428;28;20025;-67
2024/03/04 09:33:47;;;;;;;1.92;1.08;;;11.40;80.80;;;;;;5062398;28;20506;-67
2024/03/04 09:36:17;;;;;;;2.53;1.50;;;11.40;80.60;;;;;;5074334;28;20024;-66
2024/03/04 09:38:43;;;;;;;3.63;1.60;;;11.40;80.40;;;;;;5064231;28;20059;-67
2024/03/04 09:41:09;;;;;;;1.80;1.23;;;11.40;80.20;;;;;;5068434;28;20063;-67
2024/03/04 09:43:40;;;;;;;2.75;1.30;;;11.40;80.30;;;;;;5070035;28;20021;-68
2024/03/04 09:46:07;;;;;;;2.00;1.35;;;11.40;80.30;;;;;;5068889;28;20501;-67
2024/03/04 09:48:35;;;;;;;1.80;1.20;;;11.40;80.20;;;;;;5067699;28;20111;-67
2024/03/04 09:51:02;;;;;;;1.52;1.20;;;11.40;80.30;;;;;;5066168;28;20059;-67
2024/03/04 09:53:31;;;;;;;2.85;1.45;;;11.40;80.30;;;;;;5068392;28;20086;-66
2024/03/04 09:55:56;;;;;;;1.40;1.05;;;11.40;80.30;;;;;;5071663;28;20033;-68
2024/03/04 09:58:22;;;;;;;3.08;1.55;;;11.30;80.20;;;;;;5074214;28;20035;-66
2024/03/04 10:00:48;;;;;;;1.85;1.10;;;11.30;80.30;;;;;;5072248;28;20119;-67
2024/03/04 10:03:14;;;;;;;1.52;0.95;;;11.30;80.00;;;;;;5066109;28;20035;-65
2024/03/04 10:05:40;;;;;;;2.45;1.20;;;11.30;80.40;;;;;;5070759;28;20028;-66
2024/03/04 10:08:06;;;;;;;3.38;1.33;;;11.30;80.50;;;;;;5075401;28;20028;-67
2024/03/04 10:10:32;;;;;;;1.52;0.90;;;11.20;80.30;;;;;;5071417;28;20033;-66
2024/03/04 10:12:58;;;;;;;1.42;0.90;;;11.10;80.30;;;;;;5075646;28;20028;-66
2024/03/04 10:15:26;;;;;;;1.13;0.90;;;11.20;80.60;;;;;;5075530;28;20031;-65
2024/03/04 10:17:53;;;;;;;2.75;1.08;;;11.20;80.50;;;;;;5069251;28;20111;-65
2024/03/04 10:20:19;;;;;;;2.55;1.50;;;11.20;80.50;;;;;;5072367;28;20484;-67
2024/03/04 10:22:44;;;;;;;1.77;1.15;;;11.10;80.10;;;;;;5063560;28;20052;-68
2024/03/04 10:25:14;;;;;;;1.50;1.00;;;11.10;80.20;;;;;;5072100;28;20101;-65
2024/03/04 10:27:47;;;;;;;3.08;1.20;;;11.20;80.10;;;;;;5074916;28;20021;-66
2024/03/04 10:30:15;;;;;;;1.27;1.02;;;11.20;80.00;;;;;;5069075;28;20534;-68
2024/03/04 10:32:52;;;;;;;1.45;0.90;;;11.20;80.00;;;;;;5073099;28;20039;-66
2024/03/04 10:35:18;;;;;;;1.95;1.00;;;11.30;79.90;;;;;;5075529;28;20034;-67
2024/03/04 10:37:45;;;;;;;1.48;0.90;;;11.40;79.80;;;;;;5066364;28;20036;-65
2024/03/04 10:40:11;;;;;;;2.53;0.80;;;11.50;79.60;;;;;;5063503;28;20051;-65
2024/03/04 10:42:41;;;;;;;2.13;1.10;;;11.60;79.40;;;;;;5069675;28;20029;-65
2024/03/04 10:45:15;;;;;;;1.08;0.85;;;11.60;79.20;;;;;;5072873;28;20609;-66
2024/03/04 10:47:42;;;;;;;1.10;0.90;;;11.60;79.30;;;;;;5065960;28;20033;-66
2024/03/04 10:50:09;;;;;;;1.00;0.90;;;11.70;79.10;;;;;;5068106;28;20047;-66
2024/03/04 10:52:35;;;;;;;1.73;0.93;;;11.70;79.10;;;;;;5067104;28;20029;-68
2024/03/04 10:55:01;;;;;;;1.27;0.80;;;11.70;79.00;;;;;;5065129;28;20073;-66
2024/03/04 10:57:28;;;;;;;1.75;0.98;;;11.80;79.10;;;;;;5067850;28;20474;-67
2024/03/04 10:59:59;;;;;;;2.13;0.82;;;11.80;79.00;;;;;;5074389;28;20036;-66
2024/03/04 11:02:38;;;;;;;0.95;0.73;;;11.80;78.90;;;;;;5070522;28;20107;-66
2024/03/04 11:05:08;;;;;;;1.10;0.80;;;11.80;78.80;;;;;;5078058;28;20062;-68
2024/03/04 11:07:37;;;;;;;2.65;0.90;;;11.80;78.60;;;;;;5075716;28;20024;-66
2024/03/04 11:10:10;;;;;;;1.25;1.00;;;11.80;78.60;;;;;;5079613;28;20024;-66
2024/03/04 11:12:37;;;;;;;1.98;0.90;;;11.80;78.50;;;;;;5066326;28;20028;-68
2024/03/04 11:15:11;;;;;;;0.98;0.80;;;11.80;78.50;;;;;;5066597;28;20021;-67
2024/03/04 11:17:42;;;;;;;1.38;0.90;;;11.90;78.50;;;;;;5064609;28;20245;-67
2024/03/04 11:20:09;;;;;;;2.40;1.20;;;12.00;78.30;;;;;;5065373;28;20021;-66
2024/03/04 11:22:36;;;;;;;1.27;0.80;;;12.00;78.10;;;;;;5065336;28;20028;-67
2024/03/04 11:25:03;;;;;;;0.80;0.70;;;12.00;77.90;;;;;;5079353;28;20418;-67
2024/03/04 11:27:30;;;;;;;1.02;0.70;;;12.10;77.90;;;;;;5071850;28;20017;-67
2024/03/04 11:29:57;;;;;;;1.00;0.80;;;12.20;77.80;;;;;;5071505;28;20067;-68
2024/03/04 11:32:26;;;;;;;0.57;0.57;;;12.20;77.70;;;;;;5072184;28;20039;-69
2024/03/04 11:35:10;;;;;;;0.93;0.73;;;12.30;77.60;;;;;;5068180;28;20033;-67
2024/03/04 11:37:52;;;;;;;0.63;0.60;;;12.50;77.40;;;;;;5066077;28;20042;-67
2024/03/04 11:40:23;;;;;;;1.95;0.65;;;12.60;77.20;;;;;;5072984;28;20381;-66
2024/03/04 11:42:49;;;;;;;0.57;0.50;;;12.70;77.00;;;;;;5072532;28;20024;-67
2024/03/04 11:45:26;;;;;;;0.43;0.40;;;12.80;76.80;;;;;;5071083;28;20111;-67
2024/03/04 11:47:52;;;;;;;1.13;0.60;;;12.90;76.40;;;;;;5068793;28;20044;-66
2024/03/04 11:50:46;;;;;;;1.85;0.50;;;13.00;76.30;;;;;;5069657;28;20067;-65
2024/03/04 11:53:26;;;;;;;0.93;0.60;;;13.10;75.80;;;;;;5069082;28;20051;-66
2024/03/04 11:55:52;;;;;;;1.00;0.63;;;13.20;75.50;;;;;;5072868;28;20056;-66
2024/03/04 11:58:18;;;;;;;1.38;0.50;;;13.40;75.50;;;;;;5070501;28;20066;-67
2024/03/04 12:00:44;;;;;;;3.00;0.63;;;13.50;75.30;;;;;;5068944;28;20037;-67
2024/03/04 12:03:11;;;;;;;0.50;0.50;;;13.50;74.80;;;;;;5068968;28;20027;-66
2024/03/04 12:05:38;;;;;;;1.05;0.50;;;13.60;74.90;;;;;;5072310;28;20051;-67
2024/03/04 12:08:04;;;;;;;0.40;0.40;;;13.50;74.60;;;;;;5066438;28;20113;-68
2024/03/04 12:10:29;;;;;;;0.47;0.45;;;13.60;74.90;;;;;;5069536;28;20030;-68
2024/03/04 12:12:57;;;;;;;1.60;0.65;;;13.80;74.60;;;;;;5068334;28;20422;-68
2024/03/04 12:15:23;;;;;;;1.25;0.50;;;13.90;74.30;;;;;;5070517;28;20024;-67
2024/03/04 12:17:48;;;;;;;0.57;0.40;;;14.00;73.90;;;;;;5077073;28;20650;-68
2024/03/04 12:20:14;;;;;;;0.40;0.40;;;14.00;73.90;;;;;;5069786;28;20111;-67
2024/03/04 12:22:40;;;;;;;0.77;0.45;;;14.10;73.80;;;;;;5072470;28;20107;-67
2024/03/04 12:25:09;;;;;;;0.82;0.50;;;14.20;73.70;;;;;;5068775;28;20021;-67
2024/03/04 12:27:36;;;;;;;0.68;0.30;;;14.30;73.00;;;;;;5072104;28;20032;-68
2024/03/04 12:30:17;;;;;;;0.43;0.40;;;14.40;72.90;;;;;;5072986;28;20035;-67
2024/03/04 12:32:48;;;;;;;0.35;0.35;;;14.70;72.80;;;;;;5072805;28;20028;-67
2024/03/04 12:35:14;;;;;;;0.40;0.40;;;14.80;72.30;;;;;;5071866;28;20034;-68
2024/03/04 12:37:42;;;;;;;0.60;0.60;;;15.00;72.10;;;;;;5078640;28;20103;-69
2024/03/04 12:40:09;;;;;;;0.47;0.47;;;15.00;71.90;;;;;;5068190;28;20047;-67
2024/03/04 12:42:35;;;;;;;0.85;0.55;;;14.90;71.80;;;;;;5070432;28;20051;-66
2024/03/04 12:45:04;;;;;;;0.80;0.60;;;14.90;71.60;;;;;;5069192;28;20482;-67
2024/03/04 12:47:31;;;;;;;1.23;0.57;;;14.70;71.50;;;;;;5067903;28;20111;-67